sensor_id;sensor_type;location;lat;lon;timestamp;pressure;altitude;pressure_sealevel;temperature;humidity
75063;BME280;63981;51.052;13.754;2023-04-25T00:02:18;99529.84;;;8.73;69.39
75063;BME280;63981;51.052;13.754;2023-04-25T00:04:45;99558.38;;;9.16;68.92
75063;BME280;63981;51.052;13.754;2023-04-25T00:07:11;99516.38;;;9.27;67.46
75063;BME280;63981;51.052;13.754;2023-04-25T00:09:38;99569.00;;;9.51;67.83
75063;BME280;63981;51.052;13.754;2023-04-25T00:12:03;99571.66;;;9.62;67.42
75063;BME280;63981;51.052;13.754;2023-04-25T00:14:29;99567.28;;;9.50;68.01
75063;BME280;63981;51.052;13.754;2023-04-25T00:16:55;99562.25;;;9.47;68.35
75063;BME280;63981;51.052;13.754;2023-04-25T00:19:21;99563.94;;;9.48;68.76
75063;BME280;63981;51.052;13.754;2023-04-25T00:21:47;99558.19;;;9.43;69.32
75063;BME280;63981;51.052;13.754;2023-04-25T00:24:13;99529.53;;;9.27;68.97
75063;BME280;63981;51.052;13.754;2023-04-25T00:26:39;99571.47;;;9.65;69.03
75063;BME280;63981;51.052;13.754;2023-04-25T00:29:04;99522.63;;;9.37;69.27
75063;BME280;63981;51.052;13.754;2023-04-25T00:31:30;99565.84;;;9.46;69.24
75063;BME280;63981;51.052;13.754;2023-04-25T00:33:56;99572.00;;;9.58;68.75
75063;BME280;63981;51.052;13.754;2023-04-25T00:36:22;99572.81;;;9.34;69.32
75063;BME280;63981;51.052;13.754;2023-04-25T00:42:53;99572.06;;;8.96;70.06
75063;BME280;63981;51.052;13.754;2023-04-25T00:45:20;99567.88;;;8.93;69.73
75063;BME280;63981;51.052;13.754;2023-04-25T00:47:46;99564.84;;;8.86;70.47
75063;BME280;63981;51.052;13.754;2023-04-25T00:50:13;99542.34;;;8.57;70.93
75063;BME280;63981;51.052;13.754;2023-04-25T00:52:43;99514.63;;;8.40;70.81
75063;BME280;63981;51.052;13.754;2023-04-25T00:55:10;99491.16;;;8.12;71.43
75063;BME280;63981;51.052;13.754;2023-04-25T00:57:37;99566.75;;;8.46;71.76
75063;BME280;63981;51.052;13.754;2023-04-25T01:00:05;99538.78;;;8.45;71.30
75063;BME280;63981;51.052;13.754;2023-04-25T01:02:33;99512.91;;;8.77;69.69
75063;BME280;63981;51.052;13.754;2023-04-25T01:04:59;99560.94;;;8.79;69.66
75063;BME280;63981;51.052;13.754;2023-04-25T01:07:25;99558.84;;;8.72;69.96
75063;BME280;63981;51.052;13.754;2023-04-25T01:09:51;99507.47;;;8.42;69.43
75063;BME280;63981;51.052;13.754;2023-04-25T01:12:18;99556.22;;;8.59;69.67
75063;BME280;63981;51.052;13.754;2023-04-25T01:14:44;99561.22;;;8.24;70.44
75063;BME280;63981;51.052;13.754;2023-04-25T01:17:10;99522.31;;;7.91;70.93
75063;BME280;63981;51.052;13.754;2023-04-25T01:19:36;99548.91;;;8.12;70.53
75063;BME280;63981;51.052;13.754;2023-04-25T01:22:03;99569.09;;;8.24;70.50
75063;BME280;63981;51.052;13.754;2023-04-25T01:24:31;99568.22;;;8.11;71.54
75063;BME280;63981;51.052;13.754;2023-04-25T01:26:58;99523.88;;;7.93;70.75
75063;BME280;63981;51.052;13.754;2023-04-25T01:29:26;99566.25;;;8.27;69.87
75063;BME280;63981;51.052;13.754;2023-04-25T01:31:53;99536.81;;;7.96;70.62
75063;BME280;63981;51.052;13.754;2023-04-25T01:34:19;99540.19;;;7.98;70.37
75063;BME280;63981;51.052;13.754;2023-04-25T01:36:45;99533.19;;;8.24;69.33
75063;BME280;63981;51.052;13.754;2023-04-25T01:39:11;99572.13;;;8.31;69.52
75063;BME280;63981;51.052;13.754;2023-04-25T01:41:38;99561.81;;;8.02;69.42
75063;BME280;63981;51.052;13.754;2023-04-25T01:44:04;99562.56;;;7.77;70.70
75063;BME280;63981;51.052;13.754;2023-04-25T01:46:30;99495.59;;;7.32;70.53
75063;BME280;63981;51.052;13.754;2023-04-25T01:48:56;99512.22;;;7.85;69.85
75063;BME280;63981;51.052;13.754;2023-04-25T01:51:22;99531.72;;;7.81;70.21
75063;BME280;63981;51.052;13.754;2023-04-25T01:53:48;99569.75;;;7.88;70.09
75063;BME280;63981;51.052;13.754;2023-04-25T01:56:14;99561.06;;;8.00;68.92
75063;BME280;63981;51.052;13.754;2023-04-25T01:58:40;99474.41;;;7.62;69.25
75063;BME280;63981;51.052;13.754;2023-04-25T02:01:28;99560.34;;;7.98;69.45
75063;BME280;63981;51.052;13.754;2023-04-25T02:04:11;99568.34;;;7.69;69.90
75063;BME280;63981;51.052;13.754;2023-04-25T02:06:38;99534.41;;;7.39;70.28
75063;BME280;63981;51.052;13.754;2023-04-25T02:09:05;99563.16;;;7.68;70.55
75063;BME280;63981;51.052;13.754;2023-04-25T02:11:31;99577.88;;;7.71;69.92
75063;BME280;63981;51.052;13.754;2023-04-25T02:14:29;99568.38;;;7.82;70.19
75063;BME280;63981;51.052;13.754;2023-04-25T02:17:17;99443.16;;;7.32;69.01
75063;BME280;63981;51.052;13.754;2023-04-25T02:19:44;99553.59;;;7.81;68.65
75063;BME280;63981;51.052;13.754;2023-04-25T02:22:10;99569.28;;;7.68;69.63
75063;BME280;63981;51.052;13.754;2023-04-25T02:24:36;99548.13;;;7.84;68.75
75063;BME280;63981;51.052;13.754;2023-04-25T02:27:02;99544.84;;;7.54;69.47
75063;BME280;63981;51.052;13.754;2023-04-25T02:29:29;99501.53;;;7.21;69.46
75063;BME280;63981;51.052;13.754;2023-04-25T02:31:55;99568.44;;;7.81;69.16
75063;BME280;63981;51.052;13.754;2023-04-25T02:34:21;99556.97;;;7.96;68.22
75063;BME280;63981;51.052;13.754;2023-04-25T02:36:48;99557.66;;;7.85;68.79
75063;BME280;63981;51.052;13.754;2023-04-25T02:39:17;99555.25;;;7.82;68.88
75063;BME280;63981;51.052;13.754;2023-04-25T02:41:43;99442.91;;;6.95;68.73
75063;BME280;63981;51.052;13.754;2023-04-25T02:44:09;99565.44;;;7.60;69.37
75063;BME280;63981;51.052;13.754;2023-04-25T02:46:36;99527.53;;;7.24;69.75
75063;BME280;63981;51.052;13.754;2023-04-25T02:49:02;99528.47;;;7.50;69.37
75063;BME280;63981;51.052;13.754;2023-04-25T02:51:28;99554.28;;;7.44;69.04
75063;BME280;63981;51.052;13.754;2023-04-25T02:53:54;99556.78;;;7.45;69.64
75063;BME280;63981;51.052;13.754;2023-04-25T02:56:19;99521.69;;;7.06;69.85
75063;BME280;63981;51.052;13.754;2023-04-25T02:58:45;99557.28;;;7.37;69.76
75063;BME280;63981;51.052;13.754;2023-04-25T03:01:11;99559.91;;;7.64;69.79
75063;BME280;63981;51.052;13.754;2023-04-25T03:03:37;99559.59;;;7.42;70.01
75063;BME280;63981;51.052;13.754;2023-04-25T03:06:03;99557.16;;;7.66;69.93
75063;BME280;63981;51.052;13.754;2023-04-25T03:08:32;99497.22;;;7.47;69.47
75063;BME280;63981;51.052;13.754;2023-04-25T03:11:01;99554.06;;;7.47;70.14
75063;BME280;63981;51.052;13.754;2023-04-25T03:13:27;99560.59;;;7.54;69.12
75063;BME280;63981;51.052;13.754;2023-04-25T03:15:55;99551.88;;;7.53;69.45
75063;BME280;63981;51.052;13.754;2023-04-25T03:18:21;99509.03;;;7.13;69.41
75063;BME280;63981;51.052;13.754;2023-04-25T03:20:47;99444.72;;;6.80;69.74
75063;BME280;63981;51.052;13.754;2023-04-25T03:23:12;99551.78;;;7.55;69.77
75063;BME280;63981;51.052;13.754;2023-04-25T03:25:41;99550.03;;;7.41;69.76
75063;BME280;63981;51.052;13.754;2023-04-25T03:28:06;99558.44;;;7.19;71.04
75063;BME280;63981;51.052;13.754;2023-04-25T03:30:32;99491.31;;;6.47;71.14
75063;BME280;63981;51.052;13.754;2023-04-25T03:32:58;99550.78;;;7.02;71.50
75063;BME280;63981;51.052;13.754;2023-04-25T03:35:24;99557.91;;;7.00;71.37
75063;BME280;63981;51.052;13.754;2023-04-25T03:37:50;99552.16;;;7.22;70.86
75063;BME280;63981;51.052;13.754;2023-04-25T03:40:22;99477.28;;;6.76;70.93
75063;BME280;63981;51.052;13.754;2023-04-25T03:43:07;99548.53;;;7.10;70.98
75063;BME280;63981;51.052;13.754;2023-04-25T03:45:34;99560.16;;;6.92;72.11
75063;BME280;63981;51.052;13.754;2023-04-25T03:47:59;99516.75;;;6.59;72.47
75063;BME280;63981;51.052;13.754;2023-04-25T03:50:27;99559.78;;;6.84;72.05
75063;BME280;63981;51.052;13.754;2023-04-25T03:52:53;99506.38;;;6.72;72.18
75063;BME280;63981;51.052;13.754;2023-04-25T03:55:19;99552.72;;;7.13;71.71
75063;BME280;63981;51.052;13.754;2023-04-25T03:57:45;99503.13;;;6.68;71.84
75063;BME280;63981;51.052;13.754;2023-04-25T04:00:12;99552.72;;;7.13;71.39
75063;BME280;63981;51.052;13.754;2023-04-25T04:02:40;99554.94;;;6.92;72.14
75063;BME280;63981;51.052;13.754;2023-04-25T04:05:07;99557.03;;;7.14;71.65
75063;BME280;63981;51.052;13.754;2023-04-25T04:07:36;99559.84;;;7.10;71.39
75063;BME280;63981;51.052;13.754;2023-04-25T04:10:11;99564.34;;;7.08;71.57
75063;BME280;63981;51.052;13.754;2023-04-25T04:12:39;99555.84;;;7.05;71.99
75063;BME280;63981;51.052;13.754;2023-04-25T04:15:05;99558.56;;;7.03;72.00
75063;BME280;63981;51.052;13.754;2023-04-25T04:17:32;99479.59;;;6.95;71.18
75063;BME280;63981;51.052;13.754;2023-04-25T04:19:59;99559.06;;;7.64;70.29
75063;BME280;63981;51.052;13.754;2023-04-25T04:22:25;99478.28;;;7.29;69.89
75063;BME280;63981;51.052;13.754;2023-04-25T04:24:54;99551.47;;;7.86;70.30
75063;BME280;63981;51.052;13.754;2023-04-25T04:27:41;99556.00;;;7.84;69.79
75063;BME280;63981;51.052;13.754;2023-04-25T04:30:23;99558.47;;;8.13;68.30
75063;BME280;63981;51.052;13.754;2023-04-25T04:32:57;99560.84;;;8.03;68.34
75063;BME280;63981;51.052;13.754;2023-04-25T04:35:24;99479.50;;;7.24;68.67
75063;BME280;63981;51.052;13.754;2023-04-25T04:37:50;99575.06;;;7.74;68.78
75063;BME280;63981;51.052;13.754;2023-04-25T04:40:18;99529.19;;;7.79;68.31
75063;BME280;63981;51.052;13.754;2023-04-25T04:42:50;99572.91;;;7.93;68.77
75063;BME280;63981;51.052;13.754;2023-04-25T04:45:36;99575.75;;;8.03;68.49
75063;BME280;63981;51.052;13.754;2023-04-25T04:48:13;99527.59;;;7.64;68.31
75063;BME280;63981;51.052;13.754;2023-04-25T04:51:02;99578.94;;;8.08;67.39
75063;BME280;63981;51.052;13.754;2023-04-25T04:53:48;99534.31;;;7.68;67.93
75063;BME280;63981;51.052;13.754;2023-04-25T04:56:22;99586.75;;;7.82;68.26
75063;BME280;63981;51.052;13.754;2023-04-25T04:59:12;99524.53;;;7.30;68.17
75063;BME280;63981;51.052;13.754;2023-04-25T05:02:03;99586.50;;;7.73;68.55
75063;BME280;63981;51.052;13.754;2023-04-25T05:04:48;99585.59;;;7.59;69.17
75063;BME280;63981;51.052;13.754;2023-04-25T05:07:32;99521.75;;;7.19;68.96
75063;BME280;63981;51.052;13.754;2023-04-25T05:10:18;99583.59;;;7.63;68.77
75063;BME280;63981;51.052;13.754;2023-04-25T05:13:02;99590.09;;;7.57;68.94
75063;BME280;63981;51.052;13.754;2023-04-25T05:15:28;99591.63;;;7.74;69.60
75063;BME280;63981;51.052;13.754;2023-04-25T05:18:18;99597.25;;;7.82;69.43
75063;BME280;63981;51.052;13.754;2023-04-25T05:20:46;99589.34;;;8.09;68.78
75063;BME280;63981;51.052;13.754;2023-04-25T05:23:45;99542.56;;;7.89;68.83
75063;BME280;63981;51.052;13.754;2023-04-25T05:26:29;99504.84;;;7.77;68.13
75063;BME280;63981;51.052;13.754;2023-04-25T05:29:22;99480.94;;;7.69;67.40
75063;BME280;63981;51.052;13.754;2023-04-25T05:32:14;99586.09;;;8.31;67.10
75063;BME280;63981;51.052;13.754;2023-04-25T05:34:39;99551.84;;;8.20;66.69
75063;BME280;63981;51.052;13.754;2023-04-25T05:37:12;99579.13;;;8.44;66.00
75063;BME280;63981;51.052;13.754;2023-04-25T05:39:49;99564.72;;;8.37;64.92
75063;BME280;63981;51.052;13.754;2023-04-25T05:42:50;99510.59;;;8.22;63.97
75063;BME280;63981;51.052;13.754;2023-04-25T05:45:41;99578.94;;;8.73;63.68
75063;BME280;63981;51.052;13.754;2023-04-25T05:48:30;99585.94;;;8.72;63.47
75063;BME280;63981;51.052;13.754;2023-04-25T05:51:05;99480.69;;;8.24;63.20
75063;BME280;63981;51.052;13.754;2023-04-25T05:54:00;99506.84;;;8.64;62.87
75063;BME280;63981;51.052;13.754;2023-04-25T05:56:26;99590.97;;;9.13;62.80
75063;BME280;63981;51.052;13.754;2023-04-25T05:58:54;99589.84;;;9.05;62.04
75063;BME280;63981;51.052;13.754;2023-04-25T06:01:22;99511.75;;;8.69;61.28
75063;BME280;63981;51.052;13.754;2023-04-25T06:03:47;99587.19;;;9.18;61.12
75063;BME280;63981;51.052;13.754;2023-04-25T06:06:13;99590.59;;;9.43;61.55
75063;BME280;63981;51.052;13.754;2023-04-25T06:08:40;99583.38;;;9.58;60.38
75063;BME280;63981;51.052;13.754;2023-04-25T06:11:06;99556.09;;;9.35;59.80
75063;BME280;63981;51.052;13.754;2023-04-25T06:13:32;99597.50;;;9.57;60.61
75063;BME280;63981;51.052;13.754;2023-04-25T06:15:58;99542.78;;;9.50;59.88
75063;BME280;63981;51.052;13.754;2023-04-25T06:18:25;99528.00;;;9.36;59.67
75063;BME280;63981;51.052;13.754;2023-04-25T06:20:51;99598.28;;;9.94;58.56
75063;BME280;63981;51.052;13.754;2023-04-25T06:23:17;99579.31;;;9.78;59.28
75063;BME280;63981;51.052;13.754;2023-04-25T06:25:52;99520.59;;;9.54;58.56
75063;BME280;63981;51.052;13.754;2023-04-25T06:28:18;99590.09;;;10.10;58.89
75063;BME280;63981;51.052;13.754;2023-04-25T06:30:44;99586.84;;;10.30;57.54
75063;BME280;63981;51.052;13.754;2023-04-25T06:33:14;99585.00;;;10.55;57.42
75063;BME280;63981;51.052;13.754;2023-04-25T06:35:40;99479.97;;;10.15;57.24
75063;BME280;63981;51.052;13.754;2023-04-25T06:38:10;99584.44;;;10.85;56.40
75063;BME280;63981;51.052;13.754;2023-04-25T06:40:37;99587.78;;;10.98;55.93
75063;BME280;63981;51.052;13.754;2023-04-25T06:43:03;99586.06;;;11.31;55.26
75063;BME280;63981;51.052;13.754;2023-04-25T06:45:56;99544.00;;;11.18;54.95
75063;BME280;63981;51.052;13.754;2023-04-25T06:48:24;99586.91;;;11.31;54.67
75063;BME280;63981;51.052;13.754;2023-04-25T06:50:51;99542.44;;;11.27;53.62
75063;BME280;63981;51.052;13.754;2023-04-25T06:53:18;99562.50;;;11.72;52.75
75063;BME280;63981;51.052;13.754;2023-04-25T06:55:47;99586.00;;;11.87;53.43
75063;BME280;63981;51.052;13.754;2023-04-25T06:58:21;99592.94;;;11.99;53.48
75063;BME280;63981;51.052;13.754;2023-04-25T07:01:01;99584.84;;;12.12;50.72
75063;BME280;63981;51.052;13.754;2023-04-25T07:03:27;99596.47;;;11.66;50.95
75063;BME280;63981;51.052;13.754;2023-04-25T07:05:58;99540.63;;;12.14;49.78
75063;BME280;63981;51.052;13.754;2023-04-25T07:08:24;99495.94;;;12.10;49.70
75063;BME280;63981;51.052;13.754;2023-04-25T07:10:50;99583.56;;;13.39;47.37
75063;BME280;63981;51.052;13.754;2023-04-25T07:13:16;99590.84;;;13.07;47.16
75063;BME280;63981;51.052;13.754;2023-04-25T07:15:41;99596.63;;;13.21;47.87
75063;BME280;63981;51.052;13.754;2023-04-25T07:18:08;99574.78;;;14.47;45.88
75063;BME280;63981;51.052;13.754;2023-04-25T07:20:34;99585.78;;;14.52;45.39
75063;BME280;63981;51.052;13.754;2023-04-25T07:23:01;99588.28;;;14.05;46.66
75063;BME280;63981;51.052;13.754;2023-04-25T07:25:27;99592.66;;;13.46;46.05
75063;BME280;63981;51.052;13.754;2023-04-25T07:27:53;99586.81;;;13.43;46.60
75063;BME280;63981;51.052;13.754;2023-04-25T07:30:20;99595.97;;;13.29;46.99
75063;BME280;63981;51.052;13.754;2023-04-25T07:32:46;99584.81;;;13.85;46.70
75063;BME280;63981;51.052;13.754;2023-04-25T07:35:12;99493.94;;;12.24;48.38
75063;BME280;63981;51.052;13.754;2023-04-25T07:37:38;99587.38;;;12.85;47.58
75063;BME280;63981;51.052;13.754;2023-04-25T07:40:14;99592.47;;;14.17;45.26
75063;BME280;63981;51.052;13.754;2023-04-25T07:42:45;99591.28;;;13.42;45.47
75063;BME280;63981;51.052;13.754;2023-04-25T07:45:15;99544.84;;;12.98;47.28
75063;BME280;63981;51.052;13.754;2023-04-25T07:47:41;99584.53;;;15.85;42.36
75063;BME280;63981;51.052;13.754;2023-04-25T07:50:08;99583.47;;;16.75;39.80
75063;BME280;63981;51.052;13.754;2023-04-25T07:52:34;99563.59;;;14.99;41.61
75063;BME280;63981;51.052;13.754;2023-04-25T07:55:08;99584.94;;;14.51;43.52
75063;BME280;63981;51.052;13.754;2023-04-25T07:57:43;99596.69;;;15.32;42.08
75063;BME280;63981;51.052;13.754;2023-04-25T08:00:09;99592.13;;;16.77;39.52
75063;BME280;63981;51.052;13.754;2023-04-25T08:02:39;99477.88;;;14.89;40.55
75063;BME280;63981;51.052;13.754;2023-04-25T08:05:09;99551.09;;;17.22;36.41
75063;BME280;63981;51.052;13.754;2023-04-25T08:07:40;99585.84;;;18.78;35.37
75063;BME280;63981;51.052;13.754;2023-04-25T08:10:07;99602.44;;;17.32;37.18
75063;BME280;63981;51.052;13.754;2023-04-25T08:12:33;99574.94;;;18.88;35.67
75063;BME280;63981;51.052;13.754;2023-04-25T08:14:59;99593.13;;;17.94;35.29
75063;BME280;63981;51.052;13.754;2023-04-25T08:17:30;99597.34;;;18.30;35.99
75063;BME280;63981;51.052;13.754;2023-04-25T08:19:56;99519.16;;;15.29;40.09
75063;BME280;63981;51.052;13.754;2023-04-25T08:22:29;99594.81;;;15.43;40.97
75063;BME280;63981;51.052;13.754;2023-04-25T08:25:16;99607.81;;;14.62;44.02
75063;BME280;63981;51.052;13.754;2023-04-25T08:27:43;99599.41;;;17.69;38.38
75063;BME280;63981;51.052;13.754;2023-04-25T08:30:10;99597.00;;;18.33;37.96
75063;BME280;63981;51.052;13.754;2023-04-25T08:32:37;99594.97;;;16.58;39.31
75063;BME280;63981;51.052;13.754;2023-04-25T08:35:26;99566.34;;;15.08;42.35
75063;BME280;63981;51.052;13.754;2023-04-25T08:37:51;99607.69;;;14.15;44.92
75063;BME280;63981;51.052;13.754;2023-04-25T08:40:19;99586.50;;;13.36;46.09
75063;BME280;63981;51.052;13.754;2023-04-25T08:43:00;99629.69;;;13.37;47.19
75063;BME280;63981;51.052;13.754;2023-04-25T08:45:31;99638.47;;;13.07;48.15
75063;BME280;63981;51.052;13.754;2023-04-25T08:47:57;99626.72;;;12.99;47.92
75063;BME280;63981;51.052;13.754;2023-04-25T08:50:24;99577.47;;;12.78;48.06
75063;BME280;63981;51.052;13.754;2023-04-25T08:52:53;99630.06;;;13.63;47.89
75063;BME280;63981;51.052;13.754;2023-04-25T08:55:21;99645.59;;;13.86;46.55
75063;BME280;63981;51.052;13.754;2023-04-25T08:57:51;99640.00;;;13.30;48.00
75063;BME280;63981;51.052;13.754;2023-04-25T09:00:18;99602.88;;;12.90;48.57
75063;BME280;63981;51.052;13.754;2023-04-25T09:02:46;99643.66;;;13.18;48.38
75063;BME280;63981;51.052;13.754;2023-04-25T09:05:13;99664.78;;;13.08;48.71
75063;BME280;63981;51.052;13.754;2023-04-25T09:07:39;99655.06;;;13.89;46.75
75063;BME280;63981;51.052;13.754;2023-04-25T09:10:06;99654.66;;;13.84;46.52
75063;BME280;63981;51.052;13.754;2023-04-25T09:12:35;99649.34;;;13.13;48.58
75063;BME280;63981;51.052;13.754;2023-04-25T09:15:10;99665.19;;;12.83;49.46
75063;BME280;63981;51.052;13.754;2023-04-25T09:17:58;99663.59;;;13.43;47.99
75063;BME280;63981;51.052;13.754;2023-04-25T09:20:27;99643.75;;;15.77;44.00
75063;BME280;63981;51.052;13.754;2023-04-25T09:23:04;99666.66;;;15.14;44.30
75063;BME280;63981;51.052;13.754;2023-04-25T09:25:36;99600.25;;;12.99;46.98
75063;BME280;63981;51.052;13.754;2023-04-25T09:28:06;99677.44;;;13.25;47.95
75063;BME280;63981;51.052;13.754;2023-04-25T09:30:34;99680.97;;;13.15;48.77
75063;BME280;63981;51.052;13.754;2023-04-25T09:33:10;99690.50;;;12.44;49.52
75063;BME280;63981;51.052;13.754;2023-04-25T09:35:39;99700.88;;;12.67;48.44
75063;BME280;63981;51.052;13.754;2023-04-25T09:38:14;99683.19;;;12.04;50.08
75063;BME280;63981;51.052;13.754;2023-04-25T09:40:54;99704.31;;;12.04;51.81
75063;BME280;63981;51.052;13.754;2023-04-25T09:43:35;99703.09;;;12.08;51.44
75063;BME280;63981;51.052;13.754;2023-04-25T09:46:01;99681.44;;;11.82;52.33
75063;BME280;63981;51.052;13.754;2023-04-25T09:48:28;99702.34;;;11.85;52.17
75063;BME280;63981;51.052;13.754;2023-04-25T09:51:10;99710.22;;;11.63;52.94
75063;BME280;63981;51.052;13.754;2023-04-25T09:53:39;99626.25;;;11.01;52.24
75063;BME280;63981;51.052;13.754;2023-04-25T09:56:13;99713.94;;;11.82;51.89
75063;BME280;63981;51.052;13.754;2023-04-25T09:58:40;99708.31;;;11.53;52.59
75063;BME280;63981;51.052;13.754;2023-04-25T10:01:08;99715.50;;;11.96;51.89
75063;BME280;63981;51.052;13.754;2023-04-25T10:03:46;99694.19;;;12.20;51.96
75063;BME280;63981;51.052;13.754;2023-04-25T10:06:49;99674.75;;;12.95;50.33
75063;BME280;63981;51.052;13.754;2023-04-25T10:09:16;99704.16;;;13.53;48.65
75063;BME280;63981;51.052;13.754;2023-04-25T10:11:46;99699.34;;;14.08;47.38
75063;BME280;63981;51.052;13.754;2023-04-25T10:14:13;99709.06;;;15.23;45.46
75063;BME280;63981;51.052;13.754;2023-04-25T10:16:40;99674.22;;;15.46;44.12
75063;BME280;63981;51.052;13.754;2023-04-25T10:19:07;99698.50;;;15.88;43.83
75063;BME280;63981;51.052;13.754;2023-04-25T10:21:33;99705.88;;;15.29;44.50
75063;BME280;63981;51.052;13.754;2023-04-25T10:24:00;99685.28;;;14.56;46.85
75063;BME280;63981;51.052;13.754;2023-04-25T10:26:27;99710.78;;;14.18;48.00
75063;BME280;63981;51.052;13.754;2023-04-25T10:28:58;99682.75;;;13.56;48.89
75063;BME280;63981;51.052;13.754;2023-04-25T10:31:24;99647.25;;;13.38;48.10
75063;BME280;63981;51.052;13.754;2023-04-25T10:33:51;99701.47;;;13.74;49.46
75063;BME280;63981;51.052;13.754;2023-04-25T10:36:18;99723.63;;;14.23;47.16
75063;BME280;63981;51.052;13.754;2023-04-25T10:38:45;99707.00;;;14.11;48.11
75063;BME280;63981;51.052;13.754;2023-04-25T10:41:13;99711.69;;;14.57;46.57
75063;BME280;63981;51.052;13.754;2023-04-25T10:43:45;99718.88;;;14.26;47.66
75063;BME280;63981;51.052;13.754;2023-04-25T10:46:26;99679.66;;;14.01;48.19
75063;BME280;63981;51.052;13.754;2023-04-25T10:48:57;99711.09;;;13.75;49.38
75063;BME280;63981;51.052;13.754;2023-04-25T10:51:24;99731.63;;;13.52;49.01
75063;BME280;63981;51.052;13.754;2023-04-25T10:56:25;99738.34;;;12.93;51.83
75063;BME280;63981;51.052;13.754;2023-04-25T10:58:50;99743.63;;;12.73;50.65
75063;BME280;63981;51.052;13.754;2023-04-25T11:01:21;99647.00;;;11.39;52.69
75063;BME280;63981;51.052;13.754;2023-04-25T11:03:47;99733.41;;;11.93;53.52
75063;BME280;63981;51.052;13.754;2023-04-25T11:06:35;99718.78;;;10.86;56.08
75063;BME280;63981;51.052;13.754;2023-04-25T11:09:10;99760.59;;;11.26;55.83
75063;BME280;63981;51.052;13.754;2023-04-25T11:11:38;99766.03;;;11.47;55.19
75063;BME280;63981;51.052;13.754;2023-04-25T11:14:03;99764.34;;;11.57;54.78
75063;BME280;63981;51.052;13.754;2023-04-25T11:16:29;99763.72;;;12.21;53.85
75063;BME280;63981;51.052;13.754;2023-04-25T11:18:59;99763.72;;;12.32;53.64
75063;BME280;63981;51.052;13.754;2023-04-25T11:21:25;99742.69;;;12.30;53.87
75063;BME280;63981;51.052;13.754;2023-04-25T11:23:56;99770.66;;;12.33;54.44
75063;BME280;63981;51.052;13.754;2023-04-25T11:26:22;99744.09;;;11.91;55.65
75063;BME280;63981;51.052;13.754;2023-04-25T11:28:49;99783.00;;;12.55;54.39
75063;BME280;63981;51.052;13.754;2023-04-25T11:31:14;99738.47;;;12.39;54.76
75063;BME280;63981;51.052;13.754;2023-04-25T11:33:40;99788.53;;;13.37;53.10
75063;BME280;63981;51.052;13.754;2023-04-25T11:36:08;99778.03;;;14.17;51.88
75063;BME280;63981;51.052;13.754;2023-04-25T11:38:34;99785.41;;;14.13;50.79
75063;BME280;63981;51.052;13.754;2023-04-25T11:40:59;99791.25;;;14.07;49.88
75063;BME280;63981;51.052;13.754;2023-04-25T11:43:25;99793.00;;;13.57;51.38
75063;BME280;63981;51.052;13.754;2023-04-25T11:45:51;99755.56;;;13.20;49.63
75063;BME280;63981;51.052;13.754;2023-04-25T11:48:18;99738.88;;;13.08;51.09
75063;BME280;63981;51.052;13.754;2023-04-25T11:50:44;99770.94;;;13.15;49.45
75063;BME280;63981;51.052;13.754;2023-04-25T11:53:12;99753.47;;;13.23;49.18
75063;BME280;63981;51.052;13.754;2023-04-25T11:55:40;99788.81;;;14.35;47.30
75063;BME280;63981;51.052;13.754;2023-04-25T11:58:06;99787.16;;;14.43;46.31
75063;BME280;63981;51.052;13.754;2023-04-25T12:00:32;99797.28;;;14.19;47.38
75063;BME280;63981;51.052;13.754;2023-04-25T12:02:58;99768.63;;;14.03;47.10
75063;BME280;63981;51.052;13.754;2023-04-25T12:05:26;99795.41;;;14.00;47.73
75063;BME280;63981;51.052;13.754;2023-04-25T12:07:53;99790.22;;;14.39;44.94
75063;BME280;63981;51.052;13.754;2023-04-25T12:10:19;99794.63;;;14.69;45.00
75063;BME280;63981;51.052;13.754;2023-04-25T12:12:46;99803.19;;;13.41;47.13
75063;BME280;63981;51.052;13.754;2023-04-25T12:17:51;99793.06;;;13.25;48.50
75063;BME280;63981;51.052;13.754;2023-04-25T12:20:19;99810.25;;;13.31;49.08
75063;BME280;63981;51.052;13.754;2023-04-25T12:22:48;99799.94;;;13.16;49.15
75063;BME280;63981;51.052;13.754;2023-04-25T12:25:34;99812.22;;;12.42;49.87
75063;BME280;63981;51.052;13.754;2023-04-25T12:28:20;99806.31;;;12.50;50.54
75063;BME280;63981;51.052;13.754;2023-04-25T12:31:04;99768.34;;;12.83;48.50
75063;BME280;63981;51.052;13.754;2023-04-25T12:33:32;99801.69;;;13.27;47.63
75063;BME280;63981;51.052;13.754;2023-04-25T12:35:59;99764.03;;;12.82;46.04
75063;BME280;63981;51.052;13.754;2023-04-25T12:38:35;99801.78;;;13.37;46.39
75063;BME280;63981;51.052;13.754;2023-04-25T12:41:01;99717.00;;;17.66;38.31
75063;BME280;63981;51.052;13.754;2023-04-25T12:43:27;99702.75;;;18.34;35.08
75063;BME280;63981;51.052;13.754;2023-04-25T12:45:54;99718.16;;;17.63;36.55
75063;BME280;63981;51.052;13.754;2023-04-25T12:48:20;99793.22;;;16.89;37.11
75063;BME280;63981;51.052;13.754;2023-04-25T12:50:47;99798.13;;;15.18;39.59
75063;BME280;63981;51.052;13.754;2023-04-25T12:53:18;99767.03;;;13.81;44.60
75063;BME280;63981;51.052;13.754;2023-04-25T12:55:45;99799.81;;;13.90;44.46
75063;BME280;63981;51.052;13.754;2023-04-25T12:58:17;99782.13;;;12.65;46.45
75063;BME280;63981;51.052;13.754;2023-04-25T13:00:44;99778.88;;;13.15;45.39
75063;BME280;63981;51.052;13.754;2023-04-25T13:03:10;99820.56;;;13.02;46.89
75063;BME280;63981;51.052;13.754;2023-04-25T13:05:37;99781.91;;;13.10;45.99
75063;BME280;63981;51.052;13.754;2023-04-25T13:08:03;99799.69;;;12.87;46.52
75063;BME280;63981;51.052;13.754;2023-04-25T13:10:29;99791.75;;;12.12;47.35
75063;BME280;63981;51.052;13.754;2023-04-25T13:12:55;99738.44;;;11.85;48.24
75063;BME280;63981;51.052;13.754;2023-04-25T13:15:21;99830.16;;;11.82;49.43
75063;BME280;63981;51.052;13.754;2023-04-25T13:17:47;99793.44;;;11.22;51.02
75063;BME280;63981;51.052;13.754;2023-04-25T13:20:13;99788.72;;;11.14;51.11